»·PEaware :: N429NA KBFL-KSBA

N429NA :: KBFL-KSBA

FLIGHT INFORMATION

Flight Status: Arrived
Operator: Privately registered:
United States
More flights under this callsign
Pilot: Bob D. (18190)
Aircraft: Unknown
(B429)
More flights by this aircraft type
Origin: KBFL Meadows
United States
Destination: KSBA Santa Barbara Mun
United States
More flights between these airports :: More routes between these airports
Route: +PRB
File this flight plan on PilotEdge
Remarks:
Altitude:
(Current/Filed)
7,500ft
Speed:
(Current/Filed)
0kts
Departed: 03-Sep-18 02:44 PM
Arrived: 03-Sep-18 03:22 PM
Distance/Time
Traveled:
71nm/0:38
Distance/Time
To Go:
Arrived

Flight Plot

Page will automatically refresh every two minutes.

Flight plan parsing failed; only flown route is shown


Map Options




Map Legend


Flown Route
Filed Route
Departure Airport
Arrival Airport
Navaid (VOR, NDB)
Fix

Horizontal Profiles

Position Reports

Time Latitude Longitude Heading Altitude Ground
Speed
03-Sep-18 14:44 35.523422 -120.675400 191 7499ft 133kts
03-Sep-18 14:45 35.487526 -120.686504 190 7511ft 132kts
03-Sep-18 14:46 35.451848 -120.697890 190 7518ft 133kts
03-Sep-18 14:47 35.416074 -120.709155 190 7534ft 132kts
03-Sep-18 14:48 35.380434 -120.720349 190 7501ft 133kts
03-Sep-18 14:49 35.344819 -120.731523 191 7522ft 132kts
03-Sep-18 14:50 35.309489 -120.742568 191 7528ft 132kts
03-Sep-18 14:51 35.274051 -120.753608 191 7527ft 132kts
03-Sep-18 14:52 35.240460 -120.748469 146 7508ft 129kts
03-Sep-18 14:53 35.211806 -120.722948 141 7333ft 128kts
03-Sep-18 14:54 35.184095 -120.696099 141 6714ft 127kts
03-Sep-18 14:55 35.156809 -120.669891 143 6128ft 125kts
03-Sep-18 14:56 35.129420 -120.643873 145 5545ft 124kts
03-Sep-18 14:57 35.101979 -120.617764 145 5527ft 124kts
03-Sep-18 14:58 35.074247 -120.591454 146 5523ft 127kts
03-Sep-18 14:59 35.042888 -120.563199 143 5528ft 144kts
03-Sep-18 15:00 35.011045 -120.533965 141 5514ft 144kts
03-Sep-18 15:01 34.979465 -120.505472 140 5494ft 144kts
03-Sep-18 15:02 34.947700 -120.476544 139 5495ft 145kts
03-Sep-18 15:03 34.915762 -120.447115 139 5506ft 144kts
03-Sep-18 15:04 34.883726 -120.417708 139 5511ft 146kts
03-Sep-18 15:05 34.861308 -120.396573 139 5488ft 145kts
03-Sep-18 15:06 34.830403 -120.367572 139 5484ft 146kts
03-Sep-18 15:07 34.802691 -120.341570 141 5473ft 148kts
03-Sep-18 15:08 34.770694 -120.311610 142 5458ft 148kts
03-Sep-18 15:09 34.738151 -120.281241 143 5458ft 150kts
03-Sep-18 15:10 34.705194 -120.250648 144 5468ft 150kts
03-Sep-18 15:11 34.672078 -120.220109 144 5482ft 149kts
03-Sep-18 15:12 34.639129 -120.189764 144 5468ft 150kts
03-Sep-18 15:13 34.606262 -120.159493 144 5475ft 150kts
03-Sep-18 15:15 34.573082 -120.129243 144 5467ft 150kts
03-Sep-18 15:16 34.539863 -120.098879 142 5422ft 149kts
03-Sep-18 15:17 34.517374 -120.057777 114 4544ft 147kts
03-Sep-18 15:18 34.499279 -120.013699 118 3734ft 145kts
03-Sep-18 15:19 34.481336 -119.971138 119 2974ft 142kts
03-Sep-18 15:20 34.463999 -119.929659 120 2209ft 136kts
03-Sep-18 15:21 34.446930 -119.888933 119 1402ft 133kts
03-Sep-18 15:22 34.434461 -119.856228 111 999ft 81kts
03-Sep-18 15:23 34.434104 -119.829484 96 766ft 82kts
03-Sep-18 15:24 34.427950 -119.836352 262 91ft 26kts
03-Sep-18 15:25 34.428758 -119.838979 349 20ft 2kts
03-Sep-18 15:26 34.430438 -119.839474 348 30ft 10kts
03-Sep-18 15:27 34.431063 -119.838587 75 28ft 3kts
03-Sep-18 15:28 34.431930 -119.835709 90 19ft 7kts
03-Sep-18 15:29 34.431620 -119.834969 95 21ft 0kts
03-Sep-18 15:30 34.431619 -119.834831 274 15ft 0kts
03-Sep-18 15:31 34.431619 -119.834831 274 15ft 0kts
03-Sep-18 15:32 34.431619 -119.834832 274 15ft 0kts
03-Sep-18 15:33 34.431619 -119.834832 274 15ft 0kts
03-Sep-18 15:34 34.431619 -119.834832 274 15ft 0kts
03-Sep-18 15:35 34.431619 -119.834832 275 15ft 0kts
03-Sep-18 15:36 34.431619 -119.834832 275 15ft 0kts
03-Sep-18 15:37 34.431619 -119.834832 275 15ft 0kts
03-Sep-18 15:38 34.431619 -119.834832 275 15ft 0kts

Navigation Log

Ident Type
Flight plan parsing failed, navigation log unavailable